sensor_id;sensor_type;location;lat;lon;timestamp;P1;durP1;ratioP1;P2;durP2;ratioP2
25810;SDS011;13645;52.460;13.910;2022-11-20T00:01:18;21.58;;;13.20;;
25810;SDS011;13645;52.460;13.910;2022-11-20T00:03:52;25.15;;;14.10;;
25810;SDS011;13645;52.460;13.910;2022-11-20T00:06:21;21.85;;;13.43;;
25810;SDS011;13645;52.460;13.910;2022-11-20T00:08:48;27.90;;;14.68;;
25810;SDS011;13645;52.460;13.910;2022-11-20T00:11:17;23.35;;;13.95;;
25810;SDS011;13645;52.460;13.910;2022-11-20T00:13:47;24.05;;;14.18;;
25810;SDS011;13645;52.460;13.910;2022-11-20T00:16:17;22.98;;;14.10;;
25810;SDS011;13645;52.460;13.910;2022-11-20T00:18:45;24.80;;;13.80;;
25810;SDS011;13645;52.460;13.910;2022-11-20T00:21:12;23.40;;;14.60;;
25810;SDS011;13645;52.460;13.910;2022-11-20T00:23:43;23.90;;;14.23;;
25810;SDS011;13645;52.460;13.910;2022-11-20T00:26:11;24.50;;;15.15;;
25810;SDS011;13645;52.460;13.910;2022-11-20T00:28:42;27.55;;;13.85;;
25810;SDS011;13645;52.460;13.910;2022-11-20T00:31:11;22.40;;;13.75;;
25810;SDS011;13645;52.460;13.910;2022-11-20T00:33:39;23.33;;;13.88;;
25810;SDS011;13645;52.460;13.910;2022-11-20T00:36:10;25.92;;;14.30;;
25810;SDS011;13645;52.460;13.910;2022-11-20T00:38:51;25.85;;;14.85;;
25810;SDS011;13645;52.460;13.910;2022-11-20T00:41:18;23.63;;;14.50;;
25810;SDS011;13645;52.460;13.910;2022-11-20T00:43:45;24.92;;;15.00;;
25810;SDS011;13645;52.460;13.910;2022-11-20T00:46:13;27.98;;;13.68;;
25810;SDS011;13645;52.460;13.910;2022-11-20T00:48:41;23.17;;;14.25;;
25810;SDS011;13645;52.460;13.910;2022-11-20T00:51:08;24.85;;;13.98;;
25810;SDS011;13645;52.460;13.910;2022-11-20T00:53:36;22.85;;;13.98;;
25810;SDS011;13645;52.460;13.910;2022-11-20T00:56:04;27.23;;;14.65;;
25810;SDS011;13645;52.460;13.910;2022-11-20T00:58:33;29.40;;;15.70;;
25810;SDS011;13645;52.460;13.910;2022-11-20T01:01:03;26.05;;;15.45;;
25810;SDS011;13645;52.460;13.910;2022-11-20T01:03:32;25.23;;;15.20;;
25810;SDS011;13645;52.460;13.910;2022-11-20T01:06:00;25.58;;;15.57;;
25810;SDS011;13645;52.460;13.910;2022-11-20T01:08:31;24.88;;;14.80;;
25810;SDS011;13645;52.460;13.910;2022-11-20T01:11:00;28.58;;;15.65;;
25810;SDS011;13645;52.460;13.910;2022-11-20T01:13:34;25.05;;;14.40;;
25810;SDS011;13645;52.460;13.910;2022-11-20T01:16:06;25.55;;;14.55;;
25810;SDS011;13645;52.460;13.910;2022-11-20T01:18:38;30.67;;;15.57;;
25810;SDS011;13645;52.460;13.910;2022-11-20T01:21:07;25.63;;;14.88;;
25810;SDS011;13645;52.460;13.910;2022-11-20T01:23:35;28.15;;;15.10;;
25810;SDS011;13645;52.460;13.910;2022-11-20T01:26:05;30.55;;;16.13;;
25810;SDS011;13645;52.460;13.910;2022-11-20T01:28:33;32.65;;;16.30;;
25810;SDS011;13645;52.460;13.910;2022-11-20T01:31:01;25.30;;;15.63;;
25810;SDS011;13645;52.460;13.910;2022-11-20T01:33:37;29.08;;;15.95;;
25810;SDS011;13645;52.460;13.910;2022-11-20T01:36:05;26.40;;;16.15;;
25810;SDS011;13645;52.460;13.910;2022-11-20T01:38:33;25.13;;;15.18;;
25810;SDS011;13645;52.460;13.910;2022-11-20T01:41:00;33.25;;;15.88;;
25810;SDS011;13645;52.460;13.910;2022-11-20T01:43:27;25.35;;;15.80;;
25810;SDS011;13645;52.460;13.910;2022-11-20T01:48:46;25.40;;;15.32;;
25810;SDS011;13645;52.460;13.910;2022-11-20T01:53:50;28.95;;;16.95;;
25810;SDS011;13645;52.460;13.910;2022-11-20T01:56:20;27.23;;;15.70;;
25810;SDS011;13645;52.460;13.910;2022-11-20T01:58:50;30.85;;;16.85;;
25810;SDS011;13645;52.460;13.910;2022-11-20T02:01:20;28.48;;;15.45;;
25810;SDS011;13645;52.460;13.910;2022-11-20T02:03:47;29.65;;;16.42;;
25810;SDS011;13645;52.460;13.910;2022-11-20T02:08:47;29.00;;;16.67;;
25810;SDS011;13645;52.460;13.910;2022-11-20T02:11:14;28.90;;;16.88;;
25810;SDS011;13645;52.460;13.910;2022-11-20T02:13:41;32.60;;;17.37;;
25810;SDS011;13645;52.460;13.910;2022-11-20T02:19:08;27.83;;;15.88;;
25810;SDS011;13645;52.460;13.910;2022-11-20T02:21:49;28.20;;;16.17;;
25810;SDS011;13645;52.460;13.910;2022-11-20T02:24:18;28.23;;;16.13;;
25810;SDS011;13645;52.460;13.910;2022-11-20T02:29:48;27.60;;;16.38;;
25810;SDS011;13645;52.460;13.910;2022-11-20T02:32:34;25.52;;;15.15;;
25810;SDS011;13645;52.460;13.910;2022-11-20T02:35:09;29.48;;;16.65;;
25810;SDS011;13645;52.460;13.910;2022-11-20T02:37:56;30.30;;;17.27;;
25810;SDS011;13645;52.460;13.910;2022-11-20T02:40:25;32.65;;;17.08;;
25810;SDS011;13645;52.460;13.910;2022-11-20T02:42:52;27.30;;;15.93;;
25810;SDS011;13645;52.460;13.910;2022-11-20T02:45:19;26.27;;;16.27;;
25810;SDS011;13645;52.460;13.910;2022-11-20T02:47:46;27.17;;;15.57;;
25810;SDS011;13645;52.460;13.910;2022-11-20T02:50:13;28.83;;;15.93;;
25810;SDS011;13645;52.460;13.910;2022-11-20T02:52:40;30.90;;;16.40;;
25810;SDS011;13645;52.460;13.910;2022-11-20T02:55:07;28.33;;;17.10;;
25810;SDS011;13645;52.460;13.910;2022-11-20T02:57:34;30.20;;;16.67;;
25810;SDS011;13645;52.460;13.910;2022-11-20T03:00:00;29.77;;;16.37;;
25810;SDS011;13645;52.460;13.910;2022-11-20T03:02:31;30.83;;;16.77;;
25810;SDS011;13645;52.460;13.910;2022-11-20T03:04:58;31.70;;;17.42;;
25810;SDS011;13645;52.460;13.910;2022-11-20T03:07:25;30.65;;;17.20;;
25810;SDS011;13645;52.460;13.910;2022-11-20T03:09:52;29.05;;;16.17;;
25810;SDS011;13645;52.460;13.910;2022-11-20T03:12:19;27.67;;;16.00;;
25810;SDS011;13645;52.460;13.910;2022-11-20T03:14:45;34.03;;;17.73;;
25810;SDS011;13645;52.460;13.910;2022-11-20T03:17:18;28.52;;;16.52;;
25810;SDS011;13645;52.460;13.910;2022-11-20T03:19:44;30.98;;;16.73;;
25810;SDS011;13645;52.460;13.910;2022-11-20T03:22:11;31.92;;;17.02;;
25810;SDS011;13645;52.460;13.910;2022-11-20T03:24:38;27.67;;;15.73;;
25810;SDS011;13645;52.460;13.910;2022-11-20T03:27:05;31.58;;;16.38;;
25810;SDS011;13645;52.460;13.910;2022-11-20T03:29:31;29.67;;;16.52;;
25810;SDS011;13645;52.460;13.910;2022-11-20T03:31:58;28.98;;;17.45;;
25810;SDS011;13645;52.460;13.910;2022-11-20T03:34:25;26.98;;;16.35;;
25810;SDS011;13645;52.460;13.910;2022-11-20T03:36:51;28.33;;;16.10;;
25810;SDS011;13645;52.460;13.910;2022-11-20T03:39:18;30.50;;;17.17;;
25810;SDS011;13645;52.460;13.910;2022-11-20T03:41:45;27.52;;;16.60;;
25810;SDS011;13645;52.460;13.910;2022-11-20T03:44:12;31.92;;;16.13;;
25810;SDS011;13645;52.460;13.910;2022-11-20T03:46:39;25.87;;;15.63;;
25810;SDS011;13645;52.460;13.910;2022-11-20T03:49:05;29.55;;;17.45;;
25810;SDS011;13645;52.460;13.910;2022-11-20T03:51:33;26.60;;;15.50;;
25810;SDS011;13645;52.460;13.910;2022-11-20T03:54:02;28.47;;;15.60;;
25810;SDS011;13645;52.460;13.910;2022-11-20T03:56:32;28.15;;;15.80;;
25810;SDS011;13645;52.460;13.910;2022-11-20T03:59:00;32.05;;;17.02;;
25810;SDS011;13645;52.460;13.910;2022-11-20T04:01:28;27.52;;;16.08;;
25810;SDS011;13645;52.460;13.910;2022-11-20T04:03:57;29.27;;;17.13;;
25810;SDS011;13645;52.460;13.910;2022-11-20T04:06:28;29.97;;;16.67;;
25810;SDS011;13645;52.460;13.910;2022-11-20T04:08:57;24.73;;;14.93;;
25810;SDS011;13645;52.460;13.910;2022-11-20T04:11:28;29.17;;;16.35;;
25810;SDS011;13645;52.460;13.910;2022-11-20T04:13:58;27.27;;;15.77;;
25810;SDS011;13645;52.460;13.910;2022-11-20T04:16:28;28.13;;;16.58;;
25810;SDS011;13645;52.460;13.910;2022-11-20T04:18:56;27.25;;;15.63;;
25810;SDS011;13645;52.460;13.910;2022-11-20T04:21:25;24.10;;;15.13;;
25810;SDS011;13645;52.460;13.910;2022-11-20T04:23:52;26.55;;;15.75;;
25810;SDS011;13645;52.460;13.910;2022-11-20T04:26:20;27.27;;;17.15;;
25810;SDS011;13645;52.460;13.910;2022-11-20T04:28:49;24.80;;;15.32;;
25810;SDS011;13645;52.460;13.910;2022-11-20T04:31:16;28.23;;;15.68;;
25810;SDS011;13645;52.460;13.910;2022-11-20T04:33:45;25.27;;;15.50;;
25810;SDS011;13645;52.460;13.910;2022-11-20T04:36:16;30.70;;;16.52;;
25810;SDS011;13645;52.460;13.910;2022-11-20T04:38:44;24.98;;;14.70;;
25810;SDS011;13645;52.460;13.910;2022-11-20T04:41:15;23.27;;;14.40;;
25810;SDS011;13645;52.460;13.910;2022-11-20T04:43:47;26.88;;;15.55;;
25810;SDS011;13645;52.460;13.910;2022-11-20T04:46:15;26.23;;;15.10;;
25810;SDS011;13645;52.460;13.910;2022-11-20T04:48:46;27.05;;;15.38;;
25810;SDS011;13645;52.460;13.910;2022-11-20T04:51:13;28.45;;;15.65;;
25810;SDS011;13645;52.460;13.910;2022-11-20T04:53:40;28.10;;;15.68;;
25810;SDS011;13645;52.460;13.910;2022-11-20T04:56:08;25.13;;;14.73;;
25810;SDS011;13645;52.460;13.910;2022-11-20T04:58:36;26.15;;;14.57;;
25810;SDS011;13645;52.460;13.910;2022-11-20T05:01:04;23.48;;;14.30;;
25810;SDS011;13645;52.460;13.910;2022-11-20T05:03:32;26.60;;;15.68;;
25810;SDS011;13645;52.460;13.910;2022-11-20T05:06:06;28.10;;;16.23;;
25810;SDS011;13645;52.460;13.910;2022-11-20T05:08:34;27.00;;;14.82;;
25810;SDS011;13645;52.460;13.910;2022-11-20T05:11:05;24.48;;;14.88;;
25810;SDS011;13645;52.460;13.910;2022-11-20T05:13:36;26.73;;;15.32;;
25810;SDS011;13645;52.460;13.910;2022-11-20T05:16:11;26.45;;;16.00;;
25810;SDS011;13645;52.460;13.910;2022-11-20T05:18:39;27.25;;;15.15;;
25810;SDS011;13645;52.460;13.910;2022-11-20T05:21:08;29.33;;;16.52;;
25810;SDS011;13645;52.460;13.910;2022-11-20T05:23:35;27.05;;;15.57;;
25810;SDS011;13645;52.460;13.910;2022-11-20T05:26:03;27.23;;;15.50;;
25810;SDS011;13645;52.460;13.910;2022-11-20T05:28:30;26.35;;;14.93;;
25810;SDS011;13645;52.460;13.910;2022-11-20T05:31:08;29.40;;;15.45;;
25810;SDS011;13645;52.460;13.910;2022-11-20T05:33:39;24.92;;;14.25;;
25810;SDS011;13645;52.460;13.910;2022-11-20T05:36:06;26.90;;;15.77;;
25810;SDS011;13645;52.460;13.910;2022-11-20T05:38:34;28.75;;;15.18;;
25810;SDS011;13645;52.460;13.910;2022-11-20T05:41:07;25.67;;;15.80;;
25810;SDS011;13645;52.460;13.910;2022-11-20T05:43:36;26.27;;;15.55;;
25810;SDS011;13645;52.460;13.910;2022-11-20T05:46:04;27.20;;;15.73;;
25810;SDS011;13645;52.460;13.910;2022-11-20T05:48:32;30.35;;;14.98;;
25810;SDS011;13645;52.460;13.910;2022-11-20T05:51:00;25.52;;;14.48;;
25810;SDS011;13645;52.460;13.910;2022-11-20T05:53:29;27.35;;;16.42;;
25810;SDS011;13645;52.460;13.910;2022-11-20T05:55:59;25.52;;;15.63;;
25810;SDS011;13645;52.460;13.910;2022-11-20T05:58:31;28.40;;;15.45;;
25810;SDS011;13645;52.460;13.910;2022-11-20T06:01:03;33.08;;;16.80;;
25810;SDS011;13645;52.460;13.910;2022-11-20T06:03:31;28.20;;;15.73;;
25810;SDS011;13645;52.460;13.910;2022-11-20T06:05:59;33.23;;;19.17;;
25810;SDS011;13645;52.460;13.910;2022-11-20T06:08:28;30.40;;;17.40;;
25810;SDS011;13645;52.460;13.910;2022-11-20T06:10:55;31.98;;;16.88;;
25810;SDS011;13645;52.460;13.910;2022-11-20T06:13:22;27.67;;;15.30;;
25810;SDS011;13645;52.460;13.910;2022-11-20T06:15:52;25.90;;;15.13;;
25810;SDS011;13645;52.460;13.910;2022-11-20T06:18:20;28.87;;;17.80;;
25810;SDS011;13645;52.460;13.910;2022-11-20T06:20:46;26.67;;;15.80;;
25810;SDS011;13645;52.460;13.910;2022-11-20T06:23:13;23.87;;;14.53;;
25810;SDS011;13645;52.460;13.910;2022-11-20T06:25:40;27.70;;;15.67;;
25810;SDS011;13645;52.460;13.910;2022-11-20T06:28:08;27.60;;;15.30;;
25810;SDS011;13645;52.460;13.910;2022-11-20T06:30:35;26.27;;;15.47;;
25810;SDS011;13645;52.460;13.910;2022-11-20T06:33:01;27.87;;;15.60;;
25810;SDS011;13645;52.460;13.910;2022-11-20T06:35:28;30.07;;;18.60;;
25810;SDS011;13645;52.460;13.910;2022-11-20T06:37:55;29.33;;;16.17;;
25810;SDS011;13645;52.460;13.910;2022-11-20T06:40:22;35.90;;;21.10;;
25810;SDS011;13645;52.460;13.910;2022-11-20T06:42:49;26.77;;;16.27;;
25810;SDS011;13645;52.460;13.910;2022-11-20T06:45:15;32.17;;;15.73;;
25810;SDS011;13645;52.460;13.910;2022-11-20T06:47:42;30.83;;;16.50;;
25810;SDS011;13645;52.460;13.910;2022-11-20T06:50:09;28.40;;;15.77;;
25810;SDS011;13645;52.460;13.910;2022-11-20T06:52:35;26.43;;;16.27;;
25810;SDS011;13645;52.460;13.910;2022-11-20T06:55:08;30.10;;;17.17;;
25810;SDS011;13645;52.460;13.910;2022-11-20T06:57:35;31.17;;;16.60;;
25810;SDS011;13645;52.460;13.910;2022-11-20T07:00:02;30.73;;;16.63;;
25810;SDS011;13645;52.460;13.910;2022-11-20T07:02:29;28.83;;;16.33;;
25810;SDS011;13645;52.460;13.910;2022-11-20T07:04:55;30.27;;;19.17;;
25810;SDS011;13645;52.460;13.910;2022-11-20T07:07:22;35.97;;;19.03;;
25810;SDS011;13645;52.460;13.910;2022-11-20T07:09:49;30.10;;;16.73;;
25810;SDS011;13645;52.460;13.910;2022-11-20T07:12:16;26.77;;;16.52;;
25810;SDS011;13645;52.460;13.910;2022-11-20T07:14:43;25.30;;;14.80;;
25810;SDS011;13645;52.460;13.910;2022-11-20T07:17:09;30.00;;;17.00;;
25810;SDS011;13645;52.460;13.910;2022-11-20T07:19:37;27.02;;;16.75;;
25810;SDS011;13645;52.460;13.910;2022-11-20T07:22:03;26.98;;;15.65;;
25810;SDS011;13645;52.460;13.910;2022-11-20T07:24:30;25.42;;;14.85;;
25810;SDS011;13645;52.460;13.910;2022-11-20T07:26:57;26.70;;;15.10;;
25810;SDS011;13645;52.460;13.910;2022-11-20T07:29:24;24.17;;;15.13;;
25810;SDS011;13645;52.460;13.910;2022-11-20T07:31:50;25.58;;;15.13;;
25810;SDS011;13645;52.460;13.910;2022-11-20T07:34:17;26.97;;;15.30;;
25810;SDS011;13645;52.460;13.910;2022-11-20T07:36:44;25.10;;;15.20;;
25810;SDS011;13645;52.460;13.910;2022-11-20T07:39:10;28.63;;;15.50;;
25810;SDS011;13645;52.460;13.910;2022-11-20T07:41:37;27.07;;;15.37;;
25810;SDS011;13645;52.460;13.910;2022-11-20T07:44:04;25.65;;;14.73;;
25810;SDS011;13645;52.460;13.910;2022-11-20T07:46:31;28.30;;;14.82;;
25810;SDS011;13645;52.460;13.910;2022-11-20T07:48:57;29.25;;;15.73;;
25810;SDS011;13645;52.460;13.910;2022-11-20T07:51:24;23.48;;;14.60;;
25810;SDS011;13645;52.460;13.910;2022-11-20T07:53:52;25.08;;;14.50;;
25810;SDS011;13645;52.460;13.910;2022-11-20T07:56:19;27.65;;;15.73;;
25810;SDS011;13645;52.460;13.910;2022-11-20T07:58:45;25.63;;;14.75;;
25810;SDS011;13645;52.460;13.910;2022-11-20T08:01:12;30.07;;;15.03;;
25810;SDS011;13645;52.460;13.910;2022-11-20T08:03:39;29.15;;;20.23;;
25810;SDS011;13645;52.460;13.910;2022-11-20T08:06:06;26.00;;;15.13;;
25810;SDS011;13645;52.460;13.910;2022-11-20T08:08:33;25.52;;;15.38;;
25810;SDS011;13645;52.460;13.910;2022-11-20T08:11:07;26.45;;;15.07;;
25810;SDS011;13645;52.460;13.910;2022-11-20T08:13:52;26.48;;;15.27;;
25810;SDS011;13645;52.460;13.910;2022-11-20T08:16:38;25.75;;;15.35;;
25810;SDS011;13645;52.460;13.910;2022-11-20T08:19:23;28.50;;;15.95;;
25810;SDS011;13645;52.460;13.910;2022-11-20T08:21:50;27.20;;;15.80;;
25810;SDS011;13645;52.460;13.910;2022-11-20T08:24:17;26.23;;;15.45;;
25810;SDS011;13645;52.460;13.910;2022-11-20T08:26:44;26.42;;;15.75;;
25810;SDS011;13645;52.460;13.910;2022-11-20T08:29:10;29.27;;;15.40;;
25810;SDS011;13645;52.460;13.910;2022-11-20T08:31:37;28.95;;;15.27;;
25810;SDS011;13645;52.460;13.910;2022-11-20T08:34:04;27.23;;;15.52;;
25810;SDS011;13645;52.460;13.910;2022-11-20T08:36:35;28.85;;;16.25;;
25810;SDS011;13645;52.460;13.910;2022-11-20T08:39:03;26.77;;;15.23;;
25810;SDS011;13645;52.460;13.910;2022-11-20T08:41:30;29.27;;;16.43;;
25810;SDS011;13645;52.460;13.910;2022-11-20T08:44:00;27.80;;;15.55;;
25810;SDS011;13645;52.460;13.910;2022-11-20T08:46:31;29.60;;;16.53;;
25810;SDS011;13645;52.460;13.910;2022-11-20T08:49:10;25.48;;;15.30;;
25810;SDS011;13645;52.460;13.910;2022-11-20T08:51:38;27.95;;;16.02;;
25810;SDS011;13645;52.460;13.910;2022-11-20T08:54:05;34.65;;;19.80;;
25810;SDS011;13645;52.460;13.910;2022-11-20T08:56:32;38.15;;;20.77;;
25810;SDS011;13645;52.460;13.910;2022-11-20T08:59:00;34.15;;;20.70;;
25810;SDS011;13645;52.460;13.910;2022-11-20T09:01:47;33.78;;;19.70;;
25810;SDS011;13645;52.460;13.910;2022-11-20T09:04:13;33.72;;;17.60;;
25810;SDS011;13645;52.460;13.910;2022-11-20T09:06:40;28.45;;;17.60;;
25810;SDS011;13645;52.460;13.910;2022-11-20T09:09:07;44.90;;;25.52;;
25810;SDS011;13645;52.460;13.910;2022-11-20T09:11:34;40.75;;;23.70;;
25810;SDS011;13645;52.460;13.910;2022-11-20T09:14:02;32.38;;;19.60;;
25810;SDS011;13645;52.460;13.910;2022-11-20T09:16:29;30.70;;;18.67;;
25810;SDS011;13645;52.460;13.910;2022-11-20T09:18:55;30.83;;;17.63;;
25810;SDS011;13645;52.460;13.910;2022-11-20T09:21:42;34.97;;;20.80;;
25810;SDS011;13645;52.460;13.910;2022-11-20T09:24:09;42.15;;;20.90;;
25810;SDS011;13645;52.460;13.910;2022-11-20T09:26:35;33.45;;;19.38;;
25810;SDS011;13645;52.460;13.910;2022-11-20T09:29:02;30.95;;;17.00;;
25810;SDS011;13645;52.460;13.910;2022-11-20T09:31:29;35.05;;;20.23;;
25810;SDS011;13645;52.460;13.910;2022-11-20T09:33:55;29.67;;;16.63;;
25810;SDS011;13645;52.460;13.910;2022-11-20T09:36:22;26.55;;;16.08;;
25810;SDS011;13645;52.460;13.910;2022-11-20T09:38:49;31.30;;;17.67;;
25810;SDS011;13645;52.460;13.910;2022-11-20T09:41:27;30.45;;;17.75;;
25810;SDS011;13645;52.460;13.910;2022-11-20T09:46:59;54.40;;;23.48;;
25810;SDS011;13645;52.460;13.910;2022-11-20T09:49:54;30.13;;;16.85;;
25810;SDS011;13645;52.460;13.910;2022-11-20T09:55:19;31.03;;;16.80;;
25810;SDS011;13645;52.460;13.910;2022-11-20T09:57:48;32.28;;;19.05;;
25810;SDS011;13645;52.460;13.910;2022-11-20T10:00:18;31.95;;;16.40;;
25810;SDS011;13645;52.460;13.910;2022-11-20T10:02:48;28.80;;;16.98;;
25810;SDS011;13645;52.460;13.910;2022-11-20T10:05:31;32.42;;;16.88;;
25810;SDS011;13645;52.460;13.910;2022-11-20T10:13:40;33.05;;;18.23;;
25810;SDS011;13645;52.460;13.910;2022-11-20T10:16:35;30.20;;;16.70;;
25810;SDS011;13645;52.460;13.910;2022-11-20T10:29:53;32.15;;;17.27;;
25810;SDS011;13645;52.460;13.910;2022-11-20T10:32:38;27.73;;;16.20;;
25810;SDS011;13645;52.460;13.910;2022-11-20T10:35:20;29.65;;;16.63;;
25810;SDS011;13645;52.460;13.910;2022-11-20T10:38:14;26.33;;;15.57;;
25810;SDS011;13645;52.460;13.910;2022-11-20T10:40:53;24.38;;;14.48;;
25810;SDS011;13645;52.460;13.910;2022-11-20T10:43:46;27.95;;;16.67;;
25810;SDS011;13645;52.460;13.910;2022-11-20T10:46:17;26.67;;;16.33;;
25810;SDS011;13645;52.460;13.910;2022-11-20T10:48:48;28.17;;;15.40;;
25810;SDS011;13645;52.460;13.910;2022-11-20T10:51:18;27.92;;;15.63;;
25810;SDS011;13645;52.460;13.910;2022-11-20T11:00:18;25.13;;;15.13;;
25810;SDS011;13645;52.460;13.910;2022-11-20T11:05:32;24.58;;;16.35;;
25810;SDS011;13645;52.460;13.910;2022-11-20T11:08:13;27.70;;;16.20;;
25810;SDS011;13645;52.460;13.910;2022-11-20T11:13:23;27.00;;;15.93;;
25810;SDS011;13645;52.460;13.910;2022-11-20T11:15:51;25.05;;;14.93;;
25810;SDS011;13645;52.460;13.910;2022-11-20T11:18:29;24.20;;;14.90;;
25810;SDS011;13645;52.460;13.910;2022-11-20T11:21:01;26.30;;;14.32;;
25810;SDS011;13645;52.460;13.910;2022-11-20T11:23:37;26.83;;;15.05;;
25810;SDS011;13645;52.460;13.910;2022-11-20T11:26:07;45.45;;;28.00;;
25810;SDS011;13645;52.460;13.910;2022-11-20T11:28:58;37.80;;;23.30;;
25810;SDS011;13645;52.460;13.910;2022-11-20T11:31:31;26.33;;;14.10;;
25810;SDS011;13645;52.460;13.910;2022-11-20T11:36:42;28.05;;;15.43;;
25810;SDS011;13645;52.460;13.910;2022-11-20T11:39:20;24.77;;;14.13;;
25810;SDS011;13645;52.460;13.910;2022-11-20T11:41:48;24.52;;;14.30;;
25810;SDS011;13645;52.460;13.910;2022-11-20T11:44:16;23.83;;;14.52;;
25810;SDS011;13645;52.460;13.910;2022-11-20T11:47:02;22.67;;;13.18;;
25810;SDS011;13645;52.460;13.910;2022-11-20T11:49:31;23.65;;;14.65;;
25810;SDS011;13645;52.460;13.910;2022-11-20T11:57:26;22.10;;;13.68;;
25810;SDS011;13645;52.460;13.910;2022-11-20T12:00:20;27.73;;;14.93;;
25810;SDS011;13645;52.460;13.910;2022-11-20T12:02:53;25.55;;;14.18;;
25810;SDS011;13645;52.460;13.910;2022-11-20T12:05:28;25.88;;;14.05;;
25810;SDS011;13645;52.460;13.910;2022-11-20T12:15:57;28.30;;;16.20;;
25810;SDS011;13645;52.460;13.910;2022-11-20T12:18:24;25.25;;;14.95;;
25810;SDS011;13645;52.460;13.910;2022-11-20T12:21:03;26.50;;;15.05;;
25810;SDS011;13645;52.460;13.910;2022-11-20T12:29:23;31.95;;;18.70;;
25810;SDS011;13645;52.460;13.910;2022-11-20T12:40:02;29.80;;;16.05;;
25810;SDS011;13645;52.460;13.910;2022-11-20T12:43:01;30.60;;;16.10;;
25810;SDS011;13645;52.460;13.910;2022-11-20T12:51:18;32.05;;;15.52;;
25810;SDS011;13645;52.460;13.910;2022-11-20T13:01:50;30.40;;;16.25;;
25810;SDS011;13645;52.460;13.910;2022-11-20T13:07:05;25.33;;;15.43;;
25810;SDS011;13645;52.460;13.910;2022-11-20T13:09:37;25.27;;;15.73;;
25810;SDS011;13645;52.460;13.910;2022-11-20T13:15:11;28.55;;;17.17;;
25810;SDS011;13645;52.460;13.910;2022-11-20T13:17:55;30.33;;;16.27;;
25810;SDS011;13645;52.460;13.910;2022-11-20T13:20:25;28.00;;;15.40;;
25810;SDS011;13645;52.460;13.910;2022-11-20T13:22:53;22.48;;;13.82;;
25810;SDS011;13645;52.460;13.910;2022-11-20T13:25:22;26.15;;;14.02;;
25810;SDS011;13645;52.460;13.910;2022-11-20T13:27:54;29.77;;;14.68;;
25810;SDS011;13645;52.460;13.910;2022-11-20T13:30:22;22.73;;;13.60;;
25810;SDS011;13645;52.460;13.910;2022-11-20T13:33:36;27.58;;;14.85;;
25810;SDS011;13645;52.460;13.910;2022-11-20T13:35:59;22.52;;;13.43;;
25810;SDS011;13645;52.460;13.910;2022-11-20T13:38:47;22.75;;;13.52;;
25810;SDS011;13645;52.460;13.910;2022-11-20T13:41:29;23.75;;;13.60;;
25810;SDS011;13645;52.460;13.910;2022-11-20T13:47:01;20.10;;;12.55;;
25810;SDS011;13645;52.460;13.910;2022-11-20T13:49:32;23.55;;;13.13;;
25810;SDS011;13645;52.460;13.910;2022-11-20T13:54:59;23.15;;;12.63;;
25810;SDS011;13645;52.460;13.910;2022-11-20T13:58:12;26.33;;;12.40;;
25810;SDS011;13645;52.460;13.910;2022-11-20T14:00:51;26.48;;;12.95;;
25810;SDS011;13645;52.460;13.910;2022-11-20T14:03:24;18.98;;;11.43;;
25810;SDS011;13645;52.460;13.910;2022-11-20T14:06:28;20.00;;;11.40;;
25810;SDS011;13645;52.460;13.910;2022-11-20T14:08:58;21.67;;;11.68;;
25810;SDS011;13645;52.460;13.910;2022-11-20T14:11:29;17.98;;;11.18;;
25810;SDS011;13645;52.460;13.910;2022-11-20T14:14:01;18.42;;;11.60;;
25810;SDS011;13645;52.460;13.910;2022-11-20T14:16:39;18.92;;;11.48;;
25810;SDS011;13645;52.460;13.910;2022-11-20T14:21:52;23.30;;;11.60;;
25810;SDS011;13645;52.460;13.910;2022-11-20T14:24:35;17.45;;;10.27;;
25810;SDS011;13645;52.460;13.910;2022-11-20T14:27:02;18.40;;;10.90;;
25810;SDS011;13645;52.460;13.910;2022-11-20T14:29:35;20.25;;;10.18;;
25810;SDS011;13645;52.460;13.910;2022-11-20T14:32:03;19.83;;;10.57;;
25810;SDS011;13645;52.460;13.910;2022-11-20T14:34:31;20.65;;;10.30;;
25810;SDS011;13645;52.460;13.910;2022-11-20T14:37:04;20.13;;;10.55;;
25810;SDS011;13645;52.460;13.910;2022-11-20T14:39:42;18.45;;;11.18;;
25810;SDS011;13645;52.460;13.910;2022-11-20T14:42:15;20.98;;;11.68;;
25810;SDS011;13645;52.460;13.910;2022-11-20T14:44:44;20.15;;;11.18;;
25810;SDS011;13645;52.460;13.910;2022-11-20T14:47:12;18.40;;;10.82;;
25810;SDS011;13645;52.460;13.910;2022-11-20T14:49:41;20.02;;;10.95;;
25810;SDS011;13645;52.460;13.910;2022-11-20T14:54:47;19.75;;;11.27;;
25810;SDS011;13645;52.460;13.910;2022-11-20T14:57:23;21.20;;;12.30;;
25810;SDS011;13645;52.460;13.910;2022-11-20T15:02:50;19.33;;;11.73;;
25810;SDS011;13645;52.460;13.910;2022-11-20T15:05:22;21.60;;;11.60;;
25810;SDS011;13645;52.460;13.910;2022-11-20T15:08:07;28.30;;;12.90;;
25810;SDS011;13645;52.460;13.910;2022-11-20T15:10:35;23.65;;;12.30;;
25810;SDS011;13645;52.460;13.910;2022-11-20T15:13:10;22.02;;;12.07;;
25810;SDS011;13645;52.460;13.910;2022-11-20T15:15:49;32.88;;;16.80;;
25810;SDS011;13645;52.460;13.910;2022-11-20T15:18:18;21.77;;;13.18;;
25810;SDS011;13645;52.460;13.910;2022-11-20T15:20:47;21.17;;;12.55;;
25810;SDS011;13645;52.460;13.910;2022-11-20T15:23:15;24.23;;;12.52;;
25810;SDS011;13645;52.460;13.910;2022-11-20T15:25:44;20.38;;;12.57;;
25810;SDS011;13645;52.460;13.910;2022-11-20T15:28:16;21.40;;;12.25;;
25810;SDS011;13645;52.460;13.910;2022-11-20T15:30:47;23.95;;;13.07;;
25810;SDS011;13645;52.460;13.910;2022-11-20T15:33:16;20.05;;;12.23;;
25810;SDS011;13645;52.460;13.910;2022-11-20T15:35:43;20.17;;;11.48;;
25810;SDS011;13645;52.460;13.910;2022-11-20T15:38:10;22.23;;;12.05;;
25810;SDS011;13645;52.460;13.910;2022-11-20T15:40:37;21.33;;;12.60;;
25810;SDS011;13645;52.460;13.910;2022-11-20T15:43:03;23.15;;;12.32;;
25810;SDS011;13645;52.460;13.910;2022-11-20T15:48:08;21.48;;;11.80;;
25810;SDS011;13645;52.460;13.910;2022-11-20T15:50:38;22.33;;;11.65;;
25810;SDS011;13645;52.460;13.910;2022-11-20T15:53:16;18.52;;;11.60;;
25810;SDS011;13645;52.460;13.910;2022-11-20T15:55:43;21.52;;;11.85;;
25810;SDS011;13645;52.460;13.910;2022-11-20T15:58:10;17.63;;;10.77;;
25810;SDS011;13645;52.460;13.910;2022-11-20T16:00:37;22.05;;;11.70;;
25810;SDS011;13645;52.460;13.910;2022-11-20T16:03:04;23.95;;;12.40;;
25810;SDS011;13645;52.460;13.910;2022-11-20T16:05:30;21.80;;;11.88;;
25810;SDS011;13645;52.460;13.910;2022-11-20T16:07:57;17.70;;;10.70;;
25810;SDS011;13645;52.460;13.910;2022-11-20T16:10:24;20.50;;;11.95;;
25810;SDS011;13645;52.460;13.910;2022-11-20T16:12:51;20.67;;;11.98;;
25810;SDS011;13645;52.460;13.910;2022-11-20T16:15:36;17.70;;;10.90;;
25810;SDS011;13645;52.460;13.910;2022-11-20T16:18:19;20.50;;;10.80;;
25810;SDS011;13645;52.460;13.910;2022-11-20T16:20:47;19.58;;;11.43;;
25810;SDS011;13645;52.460;13.910;2022-11-20T16:23:16;18.95;;;10.98;;